Time;durP1;ratioP1;P1;durP2;ratioP2;P2;SDS_P1;SDS_P2;PMS_P1;PMS_P2;Temp;Humidity;BMP_temperature;BMP_pressure;BME280_temperature;BME280_humidity;BME280_pressure;Samples;Min_cycle;Max_cycle;Signal;HPM_P1;HPM_P2
2022/02/11 00:01:22;;;;;;;42.25;26.33;;;6.50;93.30;;;;;;5027021;28;20033;-74
2022/02/11 00:09:08;;;;;;;40.35;24.67;;;6.60;93.50;;;;;;5031538;28;20044;-74
2022/02/11 00:11:36;;;;;;;43.90;24.33;;;6.60;93.80;;;;;;5031186;28;20026;-73
2022/02/11 00:14:04;;;;;;;46.00;25.13;;;6.50;94.00;;;;;;5030840;28;20021;-74
2022/02/11 00:16:31;;;;;;;41.40;24.45;;;6.60;94.00;;;;;;5027925;28;20105;-74
2022/02/11 00:18:59;;;;;;;43.17;24.90;;;6.50;94.00;;;;;;5030369;28;20091;-73
2022/02/11 00:21:26;;;;;;;46.13;23.77;;;6.50;94.10;;;;;;5032188;28;20029;-74
2022/02/11 00:23:52;;;;;;;44.22;23.90;;;6.50;93.90;;;;;;5025525;28;20045;-73
2022/02/11 00:26:19;;;;;;;37.13;23.80;;;6.50;93.80;;;;;;5031513;28;20033;-74
2022/02/11 00:34:13;;;;;;;36.27;22.30;;;6.40;94.20;;;;;;5026054;28;20395;-73
2022/02/11 00:37:03;;;;;;;40.20;24.30;;;6.40;94.60;;;;;;5031271;28;20029;-74
2022/02/11 00:40:03;;;;;;;34.78;21.67;;;6.30;94.80;;;;;;5032430;28;20038;-73
2022/02/11 00:53:43;;;;;;;40.40;24.13;;;6.20;94.90;;;;;;5027292;28;20311;-74
2022/02/11 01:04:14;;;;;;;37.38;23.50;;;6.20;95.20;;;;;;5031567;28;20179;-74
2022/02/11 01:06:41;;;;;;;42.42;24.38;;;6.10;95.30;;;;;;5029012;28;20033;-75
2022/02/11 01:09:09;;;;;;;43.70;24.85;;;6.10;95.40;;;;;;5029222;28;20037;-73
2022/02/11 01:11:44;;;;;;;36.45;23.25;;;6.10;95.30;;;;;;5023918;28;20025;-73
2022/02/11 01:14:10;;;;;;;37.95;24.85;;;6.10;95.30;;;;;;5021929;28;20029;-74
2022/02/11 01:19:19;;;;;;;37.95;24.00;;;6.20;95.40;;;;;;5029328;28;20037;-74
2022/02/11 01:21:57;;;;;;;41.33;24.88;;;6.20;95.30;;;;;;5032018;28;20029;-74
2022/02/11 01:27:57;;;;;;;37.28;22.83;;;6.20;95.60;;;;;;5026485;28;20376;-74
2022/02/11 01:30:33;;;;;;;35.97;23.17;;;6.10;95.70;;;;;;5021844;28;20073;-74
2022/02/11 01:38:16;;;;;;;;;;;6.10;95.40;;;;;;5030931;28;20048;-74
2022/02/11 01:51:57;;;;;;;35.70;23.48;;;6.10;95.50;;;;;;5029444;28;20499;-74
2022/02/11 02:00:39;;;;;;;32.17;21.65;;;6.10;95.60;;;;;;4969302;28;20085;-73
2022/02/11 02:37:43;;;;;;;;;;;6.10;95.90;;;;;;5027656;28;20391;-74
2022/02/11 02:50:11;;;;;;;33.58;19.30;;;6.20;95.70;;;;;;5026807;28;20041;-74
2022/02/11 02:56:53;;;;;;;33.87;22.10;;;6.00;95.90;;;;;;5026149;28;20056;-74
2022/02/11 02:59:33;;;;;;;39.72;23.30;;;6.00;95.60;;;;;;5031499;28;20092;-74
2022/02/11 03:02:07;;;;;;;41.17;22.70;;;6.00;95.50;;;;;;5030402;28;20041;-74
2022/02/11 03:16:19;;;;;;;43.88;26.80;;;5.90;95.20;;;;;;5030858;28;20043;-74
2022/02/11 03:51:45;;;;;;;34.50;21.58;;;5.50;96.20;;;;;;4985816;28;20034;-73
2022/02/11 04:56:54;;;;;;;40.20;24.65;;;5.60;95.10;;;;;;5023056;28;20067;-72
2022/02/11 04:59:38;;;;;;;36.85;22.02;;;5.70;95.00;;;;;;5023789;28;20069;-73
2022/02/11 05:02:07;;;;;;;34.38;21.33;;;5.50;95.90;;;;;;5024021;28;20099;-73
2022/02/11 05:04:36;;;;;;;34.00;19.67;;;5.40;96.30;;;;;;5024068;28;20033;-73
2022/02/11 05:07:03;;;;;;;36.42;22.73;;;5.20;96.50;;;;;;5025091;28;20116;-73
2022/02/11 05:09:30;;;;;;;33.90;20.80;;;5.20;96.60;;;;;;5023486;28;20041;-73
2022/02/11 05:11:56;;;;;;;41.97;22.38;;;5.30;96.60;;;;;;5022811;28;20044;-73
2022/02/11 05:14:22;;;;;;;39.53;21.50;;;5.40;96.50;;;;;;5020160;28;20096;-73
2022/02/11 05:16:47;;;;;;;36.53;20.55;;;5.40;96.50;;;;;;5022010;28;20107;-73
2022/02/11 05:19:13;;;;;;;36.65;21.40;;;5.40;96.40;;;;;;5022559;28;20030;-73
2022/02/11 05:21:38;;;;;;;37.38;21.25;;;5.40;96.50;;;;;;5022968;28;20036;-73
2022/02/11 05:24:04;;;;;;;37.45;21.90;;;5.40;96.40;;;;;;5017921;28;20048;-73
2022/02/11 05:26:30;;;;;;;34.80;20.90;;;5.30;96.60;;;;;;5024611;28;20025;-73
2022/02/11 05:28:56;;;;;;;36.00;23.33;;;5.20;96.70;;;;;;5023861;28;20042;-74
2022/02/11 05:31:22;;;;;;;32.83;21.98;;;5.20;96.60;;;;;;5024438;28;20026;-73
2022/02/11 05:33:47;;;;;;;38.42;22.48;;;5.30;96.60;;;;;;5026162;28;20512;-73
2022/02/11 05:36:14;;;;;;;39.25;22.13;;;5.30;96.60;;;;;;5026877;28;20034;-73
2022/02/11 05:38:41;;;;;;;35.40;21.92;;;5.40;96.50;;;;;;5025254;28;20026;-73
2022/02/11 05:41:06;;;;;;;31.65;21.35;;;5.40;96.50;;;;;;5024206;28;20064;-73
2022/02/11 05:43:32;;;;;;;34.10;21.60;;;5.40;96.50;;;;;;5024312;28;20460;-73
2022/02/11 05:45:58;;;;;;;35.08;21.10;;;5.40;96.40;;;;;;5025143;28;20490;-72
2022/02/11 05:48:23;;;;;;;36.10;21.70;;;5.40;96.50;;;;;;5022189;28;20036;-73
2022/02/11 05:50:49;;;;;;;38.88;21.25;;;5.30;96.60;;;;;;5018431;28;20108;-73
2022/02/11 05:53:15;;;;;;;38.83;22.80;;;5.30;96.70;;;;;;5018396;28;20024;-74
2022/02/11 05:55:40;;;;;;;34.47;22.30;;;5.30;96.80;;;;;;5015796;28;20383;-72
2022/02/11 05:58:06;;;;;;;40.97;22.83;;;5.20;96.70;;;;;;5018059;28;20112;-73
2022/02/11 06:00:32;;;;;;;41.13;23.80;;;5.30;96.60;;;;;;5022248;28;20587;-73
2022/02/11 06:02:57;;;;;;;49.40;26.70;;;5.40;96.40;;;;;;5025972;28;20037;-73
2022/02/11 06:05:23;;;;;;;42.08;27.27;;;5.40;96.10;;;;;;5024007;28;20029;-73
2022/02/11 06:07:49;;;;;;;52.25;28.80;;;5.40;95.80;;;;;;5020054;28;20038;-73
2022/02/11 06:10:14;;;;;;;42.15;27.15;;;5.40;95.60;;;;;;5024366;28;20040;-73
2022/02/11 06:12:40;;;;;;;50.83;29.33;;;5.30;95.60;;;;;;5025847;28;20045;-73
2022/02/11 06:15:07;;;;;;;51.22;30.83;;;5.30;95.60;;;;;;5024636;28;20059;-73
2022/02/11 06:17:33;;;;;;;48.80;31.02;;;5.30;95.40;;;;;;5025286;28;20018;-73
2022/02/11 06:20:00;;;;;;;48.88;30.52;;;5.30;95.20;;;;;;5023005;28;20507;-73
2022/02/11 06:22:27;;;;;;;52.65;30.50;;;5.30;95.20;;;;;;5026636;28;20460;-73
2022/02/11 06:24:53;;;;;;;51.38;31.35;;;5.30;95.30;;;;;;5022298;28;20033;-73
2022/02/11 06:27:19;;;;;;;52.03;29.40;;;5.30;95.50;;;;;;5028992;28;20033;-74
2022/02/11 06:29:45;;;;;;;41.83;24.85;;;5.40;95.60;;;;;;5024658;28;20033;-72
2022/02/11 06:32:11;;;;;;;39.33;23.60;;;5.30;95.90;;;;;;5020566;28;20036;-75
2022/02/11 06:34:37;;;;;;;37.60;23.60;;;5.20;96.20;;;;;;5021480;28;20037;-74
2022/02/11 06:37:06;;;;;;;40.13;24.42;;;5.30;96.50;;;;;;5026514;28;20108;-74
2022/02/11 06:39:32;;;;;;;43.67;26.30;;;5.20;96.40;;;;;;5026241;28;20037;-74
2022/02/11 06:41:58;;;;;;;42.53;26.15;;;5.20;96.40;;;;;;5022050;28;20475;-73
2022/02/11 06:44:24;;;;;;;45.35;25.95;;;5.20;96.40;;;;;;5027632;28;20052;-73
2022/02/11 06:46:50;;;;;;;42.40;25.40;;;5.20;96.50;;;;;;5030490;28;20034;-73
2022/02/11 06:49:15;;;;;;;39.50;24.30;;;5.20;96.70;;;;;;5027876;28;20037;-73
2022/02/11 06:51:41;;;;;;;43.42;25.98;;;5.20;96.80;;;;;;5022388;28;21508;-73
2022/02/11 06:54:07;;;;;;;44.95;25.48;;;5.10;96.60;;;;;;5028849;28;20125;-73
2022/02/11 06:56:33;;;;;;;41.58;25.48;;;5.10;96.60;;;;;;5029164;28;20025;-73
2022/02/11 06:58:58;;;;;;;42.92;25.88;;;5.20;96.70;;;;;;5030714;28;20049;-73
2022/02/11 07:01:25;;;;;;;39.45;23.88;;;5.30;96.70;;;;;;5021558;28;20040;-73
2022/02/11 07:03:51;;;;;;;40.22;25.00;;;5.30;96.60;;;;;;5029461;28;20103;-73
2022/02/11 07:06:16;;;;;;;48.35;26.73;;;5.40;96.50;;;;;;5029737;28;20600;-73
2022/02/11 07:08:42;;;;;;;43.50;25.55;;;5.40;96.50;;;;;;5029360;28;20029;-73
2022/02/11 07:11:09;;;;;;;37.22;24.42;;;5.40;96.40;;;;;;5024647;28;20045;-73
2022/02/11 07:13:35;;;;;;;40.30;23.85;;;5.40;96.50;;;;;;5026710;28;20371;-73
2022/02/11 07:16:01;;;;;;;41.75;22.83;;;5.40;96.50;;;;;;5016396;28;20030;-73
2022/02/11 07:18:27;;;;;;;47.47;26.05;;;5.30;96.50;;;;;;5010539;28;20091;-73
2022/02/11 07:20:54;;;;;;;41.05;23.40;;;5.40;96.50;;;;;;5013277;28;20034;-74
2022/02/11 07:23:20;;;;;;;38.50;23.88;;;5.40;96.40;;;;;;5019274;28;20041;-74
2022/02/11 07:25:46;;;;;;;45.75;26.40;;;5.40;96.40;;;;;;5011342;28;20065;-74
2022/02/11 07:28:12;;;;;;;45.42;25.92;;;5.50;96.10;;;;;;5015223;28;20124;-74
2022/02/11 07:30:37;;;;;;;39.30;24.65;;;5.60;95.90;;;;;;5007657;28;21063;-74
2022/02/11 07:33:04;;;;;;;38.47;22.70;;;5.70;95.80;;;;;;5009303;28;20028;-74
2022/02/11 07:35:29;;;;;;;37.88;22.17;;;5.70;95.90;;;;;;5008214;28;20059;-74
2022/02/11 07:37:55;;;;;;;39.63;22.77;;;5.70;96.10;;;;;;5010439;28;20495;-74
2022/02/11 07:40:21;;;;;;;37.45;21.73;;;5.70;96.20;;;;;;5012860;28;20042;-74
2022/02/11 07:42:47;;;;;;;35.30;20.85;;;5.60;96.20;;;;;;5014665;28;20038;-74
2022/02/11 07:45:14;;;;;;;32.10;19.95;;;5.60;96.20;;;;;;5024628;28;20021;-74
2022/02/11 07:47:40;;;;;;;31.58;20.33;;;5.70;96.20;;;;;;5023500;28;20546;-74
2022/02/11 07:50:07;;;;;;;33.15;19.08;;;5.80;95.90;;;;;;5025292;28;20033;-74
2022/02/11 07:52:33;;;;;;;31.98;19.65;;;5.90;95.80;;;;;;5022603;28;20029;-74
2022/02/11 07:54:58;;;;;;;33.47;20.95;;;6.00;95.80;;;;;;5028717;28;20311;-75
2022/02/11 07:57:24;;;;;;;31.33;19.80;;;6.00;95.40;;;;;;5024566;28;20052;-74
2022/02/11 07:59:50;;;;;;;40.95;22.10;;;6.00;95.40;;;;;;5024208;28;20100;-74
2022/02/11 08:02:16;;;;;;;32.97;21.83;;;6.10;95.60;;;;;;5023672;28;20473;-74
2022/02/11 08:04:42;;;;;;;36.63;22.85;;;6.00;95.70;;;;;;5024884;28;20123;-74
2022/02/11 08:07:08;;;;;;;36.70;24.08;;;6.10;95.70;;;;;;5026135;28;20906;-74
2022/02/11 08:09:34;;;;;;;43.47;24.67;;;6.20;95.50;;;;;;5024919;28;20022;-74
2022/02/11 08:12:00;;;;;;;37.92;24.63;;;6.20;95.40;;;;;;5024126;28;20026;-74
2022/02/11 08:14:26;;;;;;;41.20;27.27;;;6.30;95.20;;;;;;5024431;28;20029;-73
2022/02/11 08:16:51;;;;;;;45.38;27.50;;;6.30;95.30;;;;;;5025199;28;20044;-74
2022/02/11 08:19:22;;;;;;;43.90;28.75;;;6.10;95.20;;;;;;5023184;28;20088;-74
2022/02/11 08:21:47;;;;;;;46.15;27.13;;;6.00;95.30;;;;;;5023358;28;20127;-73
2022/02/11 08:24:14;;;;;;;42.28;27.55;;;6.20;95.40;;;;;;5021412;28;20116;-73
2022/02/11 08:26:40;;;;;;;45.78;29.25;;;6.30;95.30;;;;;;5022520;28;20025;-73
2022/02/11 08:29:08;;;;;;;40.92;26.35;;;6.40;95.20;;;;;;5024495;28;20029;-73
2022/02/11 08:31:34;;;;;;;48.78;27.13;;;6.30;94.90;;;;;;5025236;28;20037;-73
2022/02/11 08:34:00;;;;;;;44.00;28.08;;;6.20;94.80;;;;;;5025943;28;20551;-73
2022/02/11 08:36:26;;;;;;;46.17;28.15;;;6.20;94.90;;;;;;5024988;28;20064;-73
2022/02/11 08:38:51;;;;;;;47.38;28.80;;;6.30;95.00;;;;;;5025345;28;20025;-73
2022/02/11 08:41:17;;;;;;;43.38;27.38;;;6.30;95.20;;;;;;5025720;28;20114;-73
2022/02/11 08:43:43;;;;;;;46.38;29.40;;;6.40;95.40;;;;;;5025058;28;20046;-73
2022/02/11 08:46:09;;;;;;;49.85;29.95;;;6.30;95.30;;;;;;5023639;28;20037;-72
2022/02/11 08:48:35;;;;;;;42.47;26.73;;;6.50;95.20;;;;;;5022929;28;20030;-74
2022/02/11 08:51:01;;;;;;;40.97;26.65;;;6.40;94.80;;;;;;5024066;28;20037;-74
2022/02/11 08:53:27;;;;;;;43.58;27.13;;;6.50;95.00;;;;;;5022924;28;20044;-74
2022/02/11 08:55:54;;;;;;;48.00;28.92;;;6.60;95.20;;;;;;5023418;28;20029;-75
2022/02/11 08:58:20;;;;;;;46.55;28.30;;;6.60;95.20;;;;;;5016601;28;20542;-74
2022/02/11 09:00:49;;;;;;;43.70;26.17;;;6.60;94.70;;;;;;5020134;28;20033;-72
2022/02/11 09:03:15;;;;;;;47.97;27.70;;;6.60;95.00;;;;;;5022639;28;20033;-72
2022/02/11 09:05:41;;;;;;;42.60;25.38;;;6.70;95.00;;;;;;5023379;28;20650;-73
2022/02/11 09:08:07;;;;;;;42.28;26.10;;;6.70;95.30;;;;;;5020372;28;20073;-72
2022/02/11 09:10:33;;;;;;;43.60;25.60;;;6.80;95.50;;;;;;5020012;28;20033;-74
2022/02/11 09:13:01;;;;;;;42.45;25.20;;;6.80;95.20;;;;;;5024672;28;20036;-73
2022/02/11 09:15:28;;;;;;;42.15;25.17;;;6.80;95.20;;;;;;5023146;28;20025;-73
2022/02/11 09:17:55;;;;;;;42.58;26.25;;;6.80;94.90;;;;;;5015144;28;20546;-73
2022/02/11 09:20:21;;;;;;;42.17;25.35;;;6.90;94.70;;;;;;5011015;28;20120;-74
2022/02/11 09:22:47;;;;;;;41.00;24.50;;;7.00;94.80;;;;;;5011099;28;20044;-74
2022/02/11 09:25:14;;;;;;;44.15;24.40;;;7.10;94.80;;;;;;5020608;28;20049;-74
2022/02/11 09:27:44;;;;;;;38.90;21.48;;;7.20;94.70;;;;;;5022326;28;20040;-74
2022/02/11 09:30:22;;;;;;;36.72;19.48;;;7.20;94.30;;;;;;5022088;28;20418;-74
2022/02/11 09:32:52;;;;;;;30.02;18.92;;;7.20;93.90;;;;;;5016901;28;20099;-74
2022/02/11 09:35:20;;;;;;;29.38;19.42;;;7.40;94.10;;;;;;5012945;28;20124;-74
2022/02/11 09:37:45;;;;;;;27.88;16.92;;;7.50;93.80;;;;;;5019939;28;20375;-73
2022/02/11 09:40:14;;;;;;;26.00;16.48;;;7.50;93.70;;;;;;5022988;28;20033;-73
2022/02/11 09:42:40;;;;;;;31.63;17.75;;;7.40;93.60;;;;;;5020523;28;20034;-73
2022/02/11 09:45:10;;;;;;;34.20;19.30;;;7.50;93.90;;;;;;5020948;28;20046;-73
2022/02/11 09:47:37;;;;;;;28.80;17.05;;;7.70;93.80;;;;;;5023547;28;20033;-73
2022/02/11 09:50:05;;;;;;;28.02;15.70;;;7.70;93.70;;;;;;5023574;28;20033;-72
2022/02/11 09:52:48;;;;;;;29.17;16.85;;;7.60;93.80;;;;;;5017901;28;20025;-73
2022/02/11 09:55:32;;;;;;;26.52;16.45;;;7.60;93.80;;;;;;5016758;28;20116;-72
2022/02/11 09:58:09;;;;;;;27.10;15.50;;;7.50;93.40;;;;;;5024286;28;20049;-73
2022/02/11 10:00:37;;;;;;;29.50;17.33;;;7.50;93.50;;;;;;5022879;28;20116;-72
2022/02/11 10:03:05;;;;;;;35.45;20.30;;;7.50;93.30;;;;;;5021823;28;20044;-73
2022/02/11 10:05:35;;;;;;;36.25;20.42;;;7.50;93.40;;;;;;5022127;28;20021;-73
2022/02/11 10:08:01;;;;;;;36.38;21.70;;;7.50;93.20;;;;;;5023486;28;20039;-73
2022/02/11 10:13:17;;;;;;;36.20;21.38;;;7.50;93.30;;;;;;5018738;28;20115;-72
2022/02/11 10:15:47;;;;;;;37.63;19.88;;;7.50;93.30;;;;;;5020269;28;20033;-72
2022/02/11 10:18:13;;;;;;;34.10;21.83;;;7.70;93.50;;;;;;5022046;28;20035;-73
2022/02/11 10:20:48;;;;;;;31.75;19.50;;;7.80;93.40;;;;;;5022716;28;20128;-73
2022/02/11 10:23:23;;;;;;;21.13;10.63;;;7.90;93.00;;;;;;5021851;28;20120;-73
2022/02/11 10:26:13;;;;;;;19.08;9.00;;;7.60;92.30;;;;;;5022460;28;20144;-72
2022/02/11 10:28:56;;;;;;;15.82;8.63;;;7.30;91.90;;;;;;5022601;28;20763;-72
2022/02/11 10:31:33;;;;;;;17.80;8.80;;;7.40;92.40;;;;;;5021923;28;20029;-72
2022/02/11 10:34:11;;;;;;;13.57;8.13;;;7.50;92.20;;;;;;5006586;28;20033;-72
2022/02/11 10:36:41;;;;;;;12.68;8.23;;;7.40;92.00;;;;;;5007987;28;20038;-74
2022/02/11 10:39:07;;;;;;;11.13;8.07;;;7.30;91.80;;;;;;5013073;28;20968;-74
2022/02/11 10:41:49;;;;;;;16.30;9.32;;;7.50;91.90;;;;;;5021874;28;20100;-74
2022/02/11 10:44:17;;;;;;;17.50;9.02;;;7.60;91.90;;;;;;5022291;28;20041;-73
2022/02/11 10:46:46;;;;;;;18.95;8.77;;;7.70;91.80;;;;;;5019944;28;20044;-74
2022/02/11 10:49:14;;;;;;;13.38;7.53;;;7.90;91.80;;;;;;5022352;28;20044;-74
2022/02/11 10:51:42;;;;;;;14.00;6.75;;;8.00;91.70;;;;;;5021697;28;20029;-74
2022/02/11 10:54:29;;;;;;;13.65;7.28;;;8.10;91.60;;;;;;5017847;28;20026;-73
2022/02/11 10:57:00;;;;;;;12.80;6.82;;;7.90;91.60;;;;;;5023209;28;20034;-73
2022/02/11 10:59:33;;;;;;;12.90;7.85;;;7.90;91.80;;;;;;5022557;28;20041;-74
2022/02/11 11:02:01;;;;;;;16.63;8.02;;;7.70;91.70;;;;;;5021558;28;20037;-75
2022/02/11 11:04:27;;;;;;;12.73;7.90;;;7.90;92.00;;;;;;5023243;28;20037;-72
2022/02/11 11:06:54;;;;;;;17.30;7.72;;;8.00;91.80;;;;;;5022635;28;20068;-73
2022/02/11 11:09:20;;;;;;;12.82;8.25;;;8.00;91.50;;;;;;5020841;28;20069;-73
2022/02/11 11:11:47;;;;;;;15.07;7.55;;;8.10;91.50;;;;;;5022471;28;20029;-73
2022/02/11 11:14:17;;;;;;;18.25;7.78;;;8.10;91.30;;;;;;5023178;28;20117;-73
2022/02/11 11:16:44;;;;;;;16.20;8.00;;;8.10;91.80;;;;;;5025673;28;20056;-73
2022/02/11 11:19:11;;;;;;;17.80;8.52;;;8.00;91.60;;;;;;5027198;28;20025;-73
2022/02/11 11:22:13;;;;;;;15.52;7.70;;;8.10;91.30;;;;;;5025507;28;20042;-73
2022/02/11 11:25:00;;;;;;;13.43;8.02;;;8.30;91.20;;;;;;5024176;28;20037;-73
2022/02/11 11:27:51;;;;;;;16.45;8.32;;;8.80;91.20;;;;;;5021607;28;20017;-72
2022/02/11 11:30:29;;;;;;;16.35;7.75;;;8.90;91.50;;;;;;5022866;28;20052;-73
2022/02/11 11:33:06;;;;;;;20.98;9.15;;;8.80;91.10;;;;;;5020776;28;20038;-73
2022/02/11 11:35:39;;;;;;;14.60;8.25;;;8.70;91.00;;;;;;5025595;28;20033;-73
2022/02/11 11:38:16;;;;;;;15.13;8.35;;;8.70;91.20;;;;;;5026247;28;20479;-73
2022/02/11 11:41:17;;;;;;;13.70;7.90;;;8.40;91.20;;;;;;5025277;28;20041;-74
2022/02/11 11:43:44;;;;;;;11.93;7.45;;;8.40;91.20;;;;;;5020505;28;20064;-73
2022/02/11 11:46:16;;;;;;;15.63;8.43;;;8.30;91.20;;;;;;5026059;28;20049;-73
2022/02/11 11:49:08;;;;;;;19.65;8.15;;;8.50;91.30;;;;;;5024071;28;20033;-73
2022/02/11 11:51:37;;;;;;;16.33;7.80;;;8.50;90.90;;;;;;5020835;28;20513;-74
2022/02/11 11:54:18;;;;;;;18.13;8.73;;;8.80;91.00;;;;;;5017224;28;20506;-74
2022/02/11 11:56:53;;;;;;;17.75;7.75;;;9.00;91.00;;;;;;5022936;28;20036;-73
2022/02/11 11:59:30;;;;;;;16.65;9.13;;;9.20;90.40;;;;;;5025401;28;20045;-73
2022/02/11 12:02:02;;;;;;;14.65;8.88;;;9.30;90.70;;;;;;5019068;28;20102;-74
2022/02/11 12:04:41;;;;;;;18.00;7.60;;;9.30;90.40;;;;;;5012271;28;20470;-73
2022/02/11 12:07:30;;;;;;;15.80;7.70;;;9.20;90.50;;;;;;5015655;28;20026;-74
2022/02/11 12:09:57;;;;;;;20.90;8.13;;;9.20;90.90;;;;;;5023341;28;20040;-74
2022/02/11 12:12:25;;;;;;;17.15;8.57;;;9.10;90.80;;;;;;5012254;28;20170;-74
2022/02/11 12:14:54;;;;;;;16.10;8.38;;;9.20;90.90;;;;;;5014798;28;20041;-74
2022/02/11 12:17:21;;;;;;;15.68;8.23;;;9.10;90.60;;;;;;5006542;28;20121;-74
2022/02/11 12:19:47;;;;;;;13.20;7.95;;;9.00;90.50;;;;;;5024652;28;20104;-74
2022/02/11 12:22:15;;;;;;;20.52;8.77;;;9.00;90.50;;;;;;5024057;28;20037;-74
2022/02/11 12:27:31;;;;;;;12.60;8.30;;;9.30;90.80;;;;;;5024485;28;20116;-74
2022/02/11 12:30:05;;;;;;;18.33;10.02;;;9.30;90.70;;;;;;5025101;28;20029;-74
2022/02/11 12:33:00;;;;;;;19.33;9.45;;;9.20;90.70;;;;;;5020053;28;20029;-76
2022/02/11 12:35:29;;;;;;;14.45;9.27;;;9.20;90.20;;;;;;5025078;28;20037;-76
2022/02/11 12:37:58;;;;;;;19.25;9.95;;;9.20;90.40;;;;;;5024006;28;20581;-75
2022/02/11 12:40:36;;;;;;;12.23;7.63;;;9.40;90.40;;;;;;5022277;28;20056;-75
2022/02/11 12:43:06;;;;;;;19.88;10.20;;;9.70;90.50;;;;;;5025230;28;20045;-74
2022/02/11 12:45:39;;;;;;;16.95;8.68;;;9.60;90.10;;;;;;5024349;28;20030;-74
2022/02/11 12:48:10;;;;;;;16.50;9.27;;;9.60;90.00;;;;;;5024539;28;20029;-74
2022/02/11 12:50:46;;;;;;;14.57;8.18;;;9.50;90.10;;;;;;5023131;28;20039;-74
2022/02/11 12:53:22;;;;;;;16.90;9.35;;;9.70;90.00;;;;;;5023564;28;20456;-74
2022/02/11 12:55:51;;;;;;;14.30;8.45;;;9.70;89.60;;;;;;5022766;28;20025;-74
2022/02/11 12:58:19;;;;;;;15.80;9.35;;;9.70;89.80;;;;;;5023055;28;20046;-74
2022/02/11 13:00:46;;;;;;;16.42;10.70;;;9.70;89.50;;;;;;5023848;28;20052;-74
2022/02/11 13:03:14;;;;;;;16.38;9.00;;;9.50;89.60;;;;;;5024907;28;20036;-74
2022/02/11 13:05:49;;;;;;;29.35;9.90;;;9.70;90.00;;;;;;5024411;28;20029;-73
2022/02/11 13:08:19;;;;;;;19.88;10.02;;;9.80;90.00;;;;;;5024632;28;20053;-74
2022/02/11 13:10:48;;;;;;;14.43;8.93;;;10.00;89.50;;;;;;5024287;28;20028;-74
2022/02/11 13:13:18;;;;;;;16.02;9.88;;;9.90;88.70;;;;;;5023439;28;20033;-74
2022/02/11 13:15:47;;;;;;;20.08;10.45;;;10.00;89.40;;;;;;5024396;28;20036;-73
2022/02/11 13:18:16;;;;;;;17.35;11.18;;;10.00;88.90;;;;;;5025387;28;20627;-73
2022/02/11 13:20:51;;;;;;;20.00;11.82;;;10.10;89.30;;;;;;5016310;28;20030;-73
2022/02/11 13:23:25;;;;;;;16.25;9.10;;;10.30;88.80;;;;;;5008561;28;20488;-73
2022/02/11 13:25:52;;;;;;;18.92;9.63;;;10.30;88.20;;;;;;5000359;28;20025;-74
2022/02/11 13:28:20;;;;;;;90.35;81.00;;;10.20;88.60;;;;;;5021380;28;20072;-74
2022/02/11 13:30:54;;;;;;;17.55;12.27;;;10.30;88.90;;;;;;5008926;28;20087;-74
2022/02/11 13:33:28;;;;;;;19.60;12.18;;;10.30;88.00;;;;;;5022715;28;20025;-74
2022/02/11 13:35:56;;;;;;;20.70;10.32;;;10.10;87.90;;;;;;5022233;28;20037;-74
2022/02/11 13:38:34;;;;;;;16.05;9.02;;;10.20;87.80;;;;;;5024899;28;20047;-74
2022/02/11 13:41:03;;;;;;;25.08;14.82;;;10.20;87.50;;;;;;5020732;28;20087;-74
2022/02/11 13:43:48;;;;;;;16.10;7.70;;;10.20;87.60;;;;;;5023852;28;20037;-74
2022/02/11 13:46:27;;;;;;;14.25;8.60;;;10.20;87.00;;;;;;5019709;28;20612;-74
2022/02/11 13:48:55;;;;;;;20.10;11.15;;;10.10;86.90;;;;;;5011573;28;21022;-74
2022/02/11 13:51:21;;;;;;;21.35;9.85;;;10.10;87.10;;;;;;5013966;28;20495;-74
2022/02/11 13:53:52;;;;;;;18.92;8.50;;;10.20;87.40;;;;;;5018407;28;20056;-74
2022/02/11 13:56:22;;;;;;;21.33;10.00;;;10.30;86.80;;;;;;5026387;28;20033;-74
2022/02/11 13:59:08;;;;;;;14.45;8.45;;;10.30;86.60;;;;;;5024966;28;20800;-74
2022/02/11 14:01:40;;;;;;;14.13;8.13;;;10.30;85.90;;;;;;5025635;28;20033;-74
2022/02/11 14:04:11;;;;;;;14.43;7.28;;;10.20;85.90;;;;;;5018247;28;20110;-74
2022/02/11 14:06:53;;;;;;;13.35;6.78;;;10.20;85.80;;;;;;5024645;28;20546;-74
2022/02/11 14:09:33;;;;;;;13.27;6.38;;;10.10;85.90;;;;;;5023442;28;20416;-74
2022/02/11 14:11:59;;;;;;;18.17;7.28;;;10.10;85.70;;;;;;5025480;28;20124;-74
2022/02/11 14:14:25;;;;;;;17.98;7.80;;;10.00;85.20;;;;;;5025829;28;20025;-74
2022/02/11 14:16:51;;;;;;;17.40;7.30;;;10.10;85.10;;;;;;5026764;28;20030;-74
2022/02/11 14:19:25;;;;;;;12.35;6.65;;;10.10;84.70;;;;;;5026399;28;20051;-74
2022/02/11 14:21:52;;;;;;;15.57;7.80;;;10.10;85.00;;;;;;5027098;28;20026;-74
2022/02/11 14:24:17;;;;;;;15.13;6.95;;;10.10;85.00;;;;;;5026206;28;20076;-74
2022/02/11 14:26:43;;;;;;;16.65;7.68;;;10.20;84.90;;;;;;5025494;28;20060;-74
2022/02/11 14:29:11;;;;;;;17.88;7.93;;;10.20;84.40;;;;;;5025640;28;20491;-74
2022/02/11 14:31:39;;;;;;;14.25;7.22;;;10.20;84.40;;;;;;5025775;28;20120;-74
2022/02/11 14:34:05;;;;;;;16.00;7.72;;;10.10;84.20;;;;;;5025289;28;20519;-74
2022/02/11 14:36:32;;;;;;;20.98;7.65;;;10.20;84.50;;;;;;5025616;28;20037;-74
2022/02/11 14:38:58;;;;;;;19.17;8.32;;;10.20;84.50;;;;;;5025915;28;20037;-74
2022/02/11 14:42:06;;;;;;;13.95;6.78;;;10.20;84.70;;;;;;5026262;28;20521;-74
2022/02/11 14:44:24;;;;;;;11.95;7.28;;;10.20;84.90;;;;;;5022694;28;20136;-74
2022/02/11 14:46:53;;;;;;;13.05;7.22;;;10.20;84.90;;;;;;5025694;28;20091;-74
2022/02/11 14:49:20;;;;;;;16.80;7.95;;;10.30;84.40;;;;;;5029747;28;20037;-74
2022/02/11 14:52:09;;;;;;;17.17;7.78;;;10.30;84.30;;;;;;5026600;28;20034;-74
2022/02/11 14:54:36;;;;;;;14.13;7.68;;;10.30;84.30;;;;;;5029227;28;20041;-73
2022/02/11 14:57:02;;;;;;;13.80;7.32;;;10.20;84.50;;;;;;5028381;28;20449;-74
2022/02/11 14:59:28;;;;;;;16.83;8.45;;;10.30;84.20;;;;;;5027515;28;20660;-74
2022/02/11 15:01:55;;;;;;;14.02;7.88;;;10.20;85.90;;;;;;5029020;28;20120;-74
2022/02/11 15:04:21;;;;;;;23.67;8.88;;;10.00;87.00;;;;;;5027863;28;20045;-74
2022/02/11 15:06:50;;;;;;;16.90;8.15;;;9.90;87.30;;;;;;5027718;28;20060;-74
2022/02/11 15:09:17;;;;;;;22.05;8.27;;;9.70;87.90;;;;;;5025056;28;20448;-74
2022/02/11 15:11:43;;;;;;;16.70;8.25;;;9.70;88.30;;;;;;5028553;28;20029;-74
2022/02/11 15:14:10;;;;;;;15.50;8.02;;;9.70;87.80;;;;;;5025518;28;20836;-74
2022/02/11 15:16:36;;;;;;;19.88;8.68;;;9.60;88.00;;;;;;5026722;28;20021;-74
2022/02/11 15:19:02;;;;;;;19.83;8.77;;;9.60;88.40;;;;;;5028229;28;20033;-74
2022/02/11 15:21:28;;;;;;;15.60;7.28;;;9.50;88.30;;;;;;5029118;28;20029;-74
2022/02/11 15:23:54;;;;;;;15.10;8.18;;;9.60;87.90;;;;;;5029246;28;20437;-74
2022/02/11 15:26:20;;;;;;;15.68;7.22;;;9.60;86.80;;;;;;5027669;28;20029;-74
2022/02/11 15:28:46;;;;;;;15.52;6.22;;;9.80;85.20;;;;;;5029547;28;20103;-74
2022/02/11 15:31:13;;;;;;;15.43;7.00;;;9.90;84.40;;;;;;5028636;28;20033;-74
2022/02/11 15:33:41;;;;;;;13.52;7.28;;;9.70;86.50;;;;;;5024953;28;20426;-74
2022/02/11 15:36:09;;;;;;;13.70;8.02;;;9.60;86.90;;;;;;5028196;28;20267;-74
2022/02/11 15:38:35;;;;;;;15.13;7.05;;;9.50;87.00;;;;;;5029191;28;20124;-74
2022/02/11 15:41:01;;;;;;;15.32;6.97;;;9.40;87.00;;;;;;5027998;28;20116;-75
2022/02/11 15:43:27;;;;;;;17.50;7.68;;;9.50;85.90;;;;;;5019791;28;20030;-74
2022/02/11 15:45:53;;;;;;;15.00;6.97;;;9.40;86.60;;;;;;5028485;28;20029;-74
2022/02/11 15:48:19;;;;;;;18.83;6.68;;;9.40;86.70;;;;;;5027705;28;20037;-74
2022/02/11 15:50:45;;;;;;;15.55;6.90;;;9.50;85.40;;;;;;5027780;28;20022;-74
2022/02/11 15:53:12;;;;;;;10.00;4.95;;;9.60;85.20;;;;;;5028075;28;20044;-74
2022/02/11 15:55:38;;;;;;;12.35;5.57;;;9.70;84.70;;;;;;5029352;28;20113;-74
2022/02/11 15:58:05;;;;;;;12.88;5.80;;;9.90;84.30;;;;;;5027308;28;20046;-74
2022/02/11 16:00:33;;;;;;;15.57;6.05;;;10.00;84.60;;;;;;5028471;28;20036;-72
2022/02/11 16:03:02;;;;;;;14.05;5.90;;;9.80;84.40;;;;;;5028083;28;20075;-71
2022/02/11 16:05:28;;;;;;;13.00;5.60;;;9.70;84.20;;;;;;5020750;28;20026;-71
2022/02/11 16:07:54;;;;;;;11.77;5.40;;;9.80;83.60;;;;;;5024230;28;20142;-71
2022/02/11 16:10:22;;;;;;;10.35;5.03;;;9.80;83.40;;;;;;5019104;28;20537;-72
2022/02/11 16:12:48;;;;;;;10.88;6.05;;;9.80;83.30;;;;;;5025446;28;20026;-71
2022/02/11 16:15:14;;;;;;;11.52;5.47;;;9.80;82.80;;;;;;5025290;28;20109;-71
2022/02/11 16:20:26;;;;;;;14.00;5.97;;;9.80;82.50;;;;;;5022958;28;20044;-72
2022/02/11 16:22:51;;;;;;;9.73;4.63;;;9.70;83.30;;;;;;5024042;28;20033;-72
2022/02/11 16:25:17;;;;;;;11.68;5.13;;;9.70;82.70;;;;;;5024360;28;20510;-72
2022/02/11 16:27:43;;;;;;;11.90;5.20;;;9.50;83.20;;;;;;5028297;28;20029;-71
2022/02/11 16:30:09;;;;;;;11.13;5.03;;;9.50;83.10;;;;;;5027995;28;20025;-74
2022/02/11 16:32:34;;;;;;;10.50;5.30;;;9.50;83.10;;;;;;5026990;28;20476;-71
2022/02/11 16:35:00;;;;;;;9.98;4.80;;;9.50;83.00;;;;;;5027330;28;20218;-71